Hasvik, Hasvik Airport (ENHK)

NameHasvik Airport
CityHasvik
CountryNorway
ICAOENHK
IATAHAA
Altitude7 m
CoordinatesGoogle Map
Live Air TrafficLiveATC.net
METARENHK 201850Z 20004KT 9999 BKN043 03/M01 Q0998
2019-03-20 18:50:00 Wind: South (200°) 2.06 m/s - Visibility: > 10000 m - Temperature: 3 °C - Dew point: -1 °C - Humidity: 75.3% - Pressure: 0998 hPa

Sorry, no flights used the airport in this database.